Home > Products > Valid Products > TAF

000
FTUS43 KABR 251700
TAFATY
TAF
KATY 251726Z 2518/2618 21008KT P6SM OVC020
     FM260200 VRB04KT P6SM SKC
     FM261400 24010KT P6SM BKN250=



000
FTUS43 KABR 251700
TAFMBG
TAF
KMBG 251726Z 2518/2618 34013G20KT P6SM SKC
     FM260200 VRB04KT P6SM SKC
     FM261400 31012KT P6SM SCT250=



000
FTUS43 KABR 251700
TAFPIR
TAF
KPIR 251726Z 2518/2618 32015G24KT P6SM SKC
     FM260200 VRB04KT P6SM SKC
     FM261400 32010KT P6SM BKN250=



000
FTUS43 KABR 251700
TAFABR
TAF
KABR 251726Z 2518/2618 03010KT P6SM BKN015
     FM252000 34010KT P6SM SKC
     FM260200 VRB03KT P6SM SKC
     FM261400 28010KT P6SM SCT250=



000
FTUS43 KABR 251500 AAA
TAFABR
TAF AMD
KABR 251529Z 2515/2612 32014KT P6SM OVC008
     FM251700 33015G25KT P6SM SCT015
     FM252200 32010KT P6SM SKC
     FM260200 VRB03KT P6SM SKC=



000
FTUS43 KABR 251400 AAA
TAFPIR
TAF AMD
KPIR 251404Z 2514/2612 34015KT P6SM SCT015
     FM251600 33018G27KT P6SM SKC
     FM260100 VRB04KT P6SM SKC=



000
FTUS43 KABR 251400 AAA
TAFATY
TAF AMD
KATY 251404Z 2514/2612 19009KT P6SM SKC
     FM251600 33016G25KT P6SM SKC
     FM260200 VRB04KT P6SM SKC=



000
FTUS43 KABR 251400 AAB
TAFMBG
TAF AMD
KMBG 251403Z 2514/2612 33010KT P6SM BKN010
     FM251500 33016G23KT P6SM SKC
     FM260100 VRB04KT P6SM SKC=



000
FTUS43 KABR 251200 AAA
TAFMBG
TAF AMD
KMBG 251238Z 2513/2612 32014KT P6SM SCT015
      TEMPO 2513/2514 BKN015
     FM251400 33016G23KT P6SM SKC
     FM260100 VRB04KT P6SM SKC=



000
FTUS43 KABR 251200 AAA
TAFABR
TAF AMD
KABR 251236Z 2513/2612 34010KT P6SM SCT015
      TEMPO 2513/2514 BKN015
     FM251500 33013G23KT P6SM SKC
     FM252200 32010KT P6SM SKC
     FM260200 VRB03KT P6SM SKC=



000
FTUS43 KABR 251100
TAFPIR
TAF
KPIR 251140Z 2512/2612 34011KT P6SM SKC
     FM251400 33018G27KT P6SM SKC
     FM260100 VRB04KT P6SM SKC=



000
FTUS43 KABR 251100
TAFMBG
TAF
KMBG 251140Z 2512/2612 34015KT P6SM SCT100
      TEMPO 2512/2514 BKN010
     FM251400 33016G23KT P6SM SKC
     FM260100 VRB04KT P6SM SKC=



000
FTUS43 KABR 251100
TAFATY
TAF
KATY 251140Z 2512/2612 17010KT P6SM VCTS SCT070CB BKN100
     FM251300 35008KT P6SM SCT120
     FM251500 33016G25KT P6SM SKC
     FM260200 VRB04KT P6SM SKC=



000
FTUS43 KABR 251100
TAFABR
TAF
KABR 251140Z 2512/2612 34010KT P6SM SCT008
      TEMPO 2512/2514 BKN008
     FM251500 33015G24KT P6SM SKC
     FM252200 32010KT P6SM SKC
     FM260200 VRB03KT P6SM SKC=



000
FTUS43 KABR 251000 AAD
TAFATY
TAF AMD
KATY 251054Z 2511/2606 14011KT P6SM -SHRA SCT050 BKN100
      TEMPO 2511/2512 -TSRA BKN050CB
     FM251200 17010KT P6SM SCT100
     FM251600 35011KT P6SM SCT120
     FM260200 VRB05KT P6SM SCT120=



000
FTUS43 KABR 251000 AAC
TAFATY
TAF AMD
KATY 251037Z 2511/2606 14011KT P6SM VCTS SCT050CB BKN100
      TEMPO 2511/2512 P6SM -SHRA BKN050
     FM251200 17010KT P6SM SCT100
     FM251600 35011KT P6SM SCT120
     FM260200 VRB05KT P6SM SCT120=



000
FTUS43 KABR 250900 AAA
TAFPIR
TAF AMD
KPIR 250957Z 2510/2606 14011KT P6SM SCT150
     FM251200 34011KT P6SM SCT150
     FM252200 VRB05KT P6SM FEW150=



000
FTUS43 KABR 250800 AAB
TAFATY
TAF AMD
KATY 250832Z 2509/2606 14014KT P6SM VCTS SCT050CB BKN100
      TEMPO 2509/2511 P6SM -SHRA BKN050
     FM251100 17010KT P6SM SCT100
     FM251600 35011KT P6SM SCT120
     FM260200 VRB05KT P6SM SCT120=



000
FTUS43 KABR 250600 AAA
TAFATY
TAF AMD
KATY 250610Z 2506/2606 14014KT P6SM BKN100
      TEMPO 2507/2508 3SM +TSRA BKN050CB
     FM250800 14008KT P6SM SCT100
     FM251600 35011KT P6SM SCT120
     FM260200 VRB05KT P6SM SCT120=



000
FTUS43 KABR 250500
TAFATY
TAF
KATY 250523Z 2506/2606 14014G22KT P6SM SCT100
     FM250800 14008KT P6SM SCT100
     FM251600 35011KT P6SM SCT120
     FM260200 VRB05KT P6SM SCT120=



000
FTUS43 KABR 250500
TAFABR
TAF
KABR 250523Z 2506/2606 15011KT P6SM SCT080
      TEMPO 2506/2507 2SM +TSRA BKN050CB
     FM251400 34014G22KT P6SM SCT120
     FM260200 VRB05KT P6SM SCT120=



000
FTUS43 KABR 250500
TAFPIR
TAF
KPIR 250523Z 2506/2606 14011KT P6SM SCT150
      TEMPO 2506/2507 01022G32KT
     FM250700 34015G23KT P6SM SCT150
     FM252200 VRB05KT P6SM FEW150=



000
FTUS43 KABR 250500
TAFMBG
TAF
KMBG 250523Z 2506/2606 11014KT P6SM -SHRA VCTS SCT080CB BKN100
     FM250800 34015KT P6SM SKC
     FM251400 33016G23KT P6SM SKC
     FM252200 VRB05KT P6SM SKC=



000
FTUS43 KABR 250400 AAA
TAFPIR
TAF AMD
KPIR 250457Z 2505/2524 34015G23KT P6SM SCT150
     FM252200 VRB05KT P6SM FEW150=



000
FTUS43 KABR 250400 AAD
TAFMBG
TAF AMD
KMBG 250409Z 2504/2524 VRB04KT P6SM -TSRA SCT060CB
     FM250500 VRB05KT P6SM SCT150
     FM250800 34015KT P6SM SKC
     FM251400 33016G23KT P6SM SKC
     FM252200 VRB05KT P6SM SKC=



000
FTUS43 KABR 250400 AAC
TAFMBG
TAF AMD
KMBG 250403Z 2504/2524 VRB04KT P6SM -RA VCTS SCT060CB
     FM250600 VRB05KT P6SM SCT150
     FM250800 34015KT P6SM SKC
     FM251400 33016G23KT P6SM SKC
     FM252200 VRB05KT P6SM SKC=



000
FTUS43 KABR 250300 AAA
TAFABR
TAF AMD
KABR 250323Z 2503/2524 12008KT P6SM SCT080
     FM251400 34014G22KT P6SM SCT120=



000
FTUS43 KABR 250300 AAB
TAFMBG
TAF AMD
KMBG 250322Z 2503/2524 VRB04KT P6SM -TSRA SCT060CB
     FM250400 VRB05KT P6SM SCT150
     FM250800 34015KT P6SM SKC
     FM251400 33016G23KT P6SM SKC
     FM252200 VRB05KT P6SM SKC=



000
FTUS43 KABR 250100 AAA
TAFMBG
TAF AMD
KMBG 250117Z 2501/2524 12020G28KT P6SM SCT150
     FM250400 11012KT P6SM SCT150
     FM250500 VRB06KT P6SM SCT150
     FM250800 34015KT P6SM SKC
     FM251400 33016G23KT P6SM SKC
     FM252200 VRB05KT P6SM SKC=



000
FTUS43 KABR 250100 AAA
TAFABR
TAF AMD
KABR 250116Z 2501/2524 15015G22KT P6SM FEW200
     FM250200 15014KT P6SM SCT120
     FM250600 12008KT P6SM SCT120
     FM251400 34014G22KT P6SM SCT120=



000
FTUS43 KABR 242300
TAFATY
TAF
KATY 242331Z 2500/2524 16020G28KT P6SM BKN060
     FM250200 15013KT P6SM SCT120
     FM250800 14008KT P6SM SCT120
     FM251600 35011KT P6SM SCT120=



000
FTUS43 KABR 242300
TAFMBG
TAF
KMBG 242331Z 2500/2524 12020G28KT P6SM SCT150
     FM250100 11012KT P6SM SCT150
     FM250500 VRB06KT P6SM SCT150
     FM250800 34015KT P6SM SKC
     FM251400 33016G23KT P6SM SKC
     FM252200 VRB05KT P6SM SKC=



000
FTUS43 KABR 242300
TAFPIR
TAF
KPIR 242331Z 2500/2524 13022G30KT P6SM SCT150
     FM250200 14010KT P6SM SCT150
     FM250700 34015G23KT P6SM SCT150
     FM252200 VRB05KT P6SM FEW150=



000
FTUS43 KABR 242300
TAFABR
TAF
KABR 242331Z 2500/2524 15022G30KT P6SM FEW200
     FM250200 15014KT P6SM SCT120
     FM250600 12008KT P6SM SCT120
     FM251400 34014G22KT P6SM SCT120=



000
FTUS43 KABR 241900 AAA
TAFATY
TAF AMD
KATY 241901Z 2419/2518 15017G25KT P6SM VCTS SCT060CB BKN080
      TEMPO 2419/2420 2SM +TSRA BKN030CB OVC050
     FM242000 15017G25KT P6SM BKN100
     FM250300 15013KT P6SM SCT120
     FM250800 16009KT P6SM SCT120
     FM251600 32010KT P6SM SCT120=



000
FTUS43 KABR 241700
TAFABR
TAF
KABR 241739Z 2418/2518 01013KT P6SM BKN040 OVC060
     FM241900 15017G27KT P6SM BKN100
     FM250200 15014KT P6SM SCT120
     FM250600 15010KT P6SM SCT120
     FM251400 33014KT P6SM SCT120=



000
FTUS43 KABR 241700
TAFATY
TAF
KATY 241739Z 2418/2518 15017G25KT P6SM VCTS SCT060CB BKN080
     FM242000 15017G25KT P6SM BKN100
     FM250300 15013KT P6SM SCT120
     FM250800 16009KT P6SM SCT120
     FM251600 32010KT P6SM SCT120=



000
FTUS43 KABR 241700
TAFMBG
TAF
KMBG 241739Z 2418/2518 14020G28KT P6SM SCT150
     FM250100 11012KT P6SM SCT150
     FM251000 34013KT P6SM SKC
     FM251400 33016G23KT P6SM SKC=



000
FTUS43 KABR 241700
TAFPIR
TAF
KPIR 241739Z 2418/2518 14022G30KT P6SM SCT150
     FM250200 14010KT P6SM SCT150
     FM250800 31015G23KT P6SM SCT150=



000
FTUS43 KABR 241600 AAC
TAFATY
TAF AMD
KATY 241649Z 2417/2512 15015G25KT P6SM VCTS SCT060CB BKN080
     FM241900 16017G25KT P6SM SCT090 BKN250
     FM250700 15011KT P6SM SKC=



000
FTUS43 KABR 241400 AAB
TAFMBG
TAF AMD
KMBG 241437Z 2415/2512 14022G29KT P6SM VCTS SCT060CB BKN080 BKN150
     FM241800 15026G36KT P6SM SCT100
     FM242300 12017KT P6SM SKC
     FM250700 36007KT P6SM SKC=



000
FTUS43 KABR 241400 AAB
TAFATY
TAF AMD
KATY 241434Z 2415/2512 15015G25KT P6SM VCTS SCT060CB BKN090 OVC150
     FM241600 16017G25KT P6SM SCT090 BKN250
     FM250700 15011KT P6SM SKC=



000
FTUS43 KABR 241200 AAA
TAFMBG
TAF AMD
KMBG 241252Z 2413/2512 14016G26KT P6SM SCT100 OVC250
     FM241330 14022G32KT P6SM VCTS SCT100CB OVC250
     FM241500 15026G36KT P6SM SCT100
     FM242300 12017KT P6SM SKC
     FM250700 36007KT P6SM SKC=



000
FTUS43 KABR 241200 AAA
TAFPIR
TAF AMD
KPIR 241251Z 2413/2512 11011KT P6SM SCT120 BKN200
     FM241400 15025G35KT P6SM SCT120
     FM250200 14010KT P6SM SKC
     FM250800 30009KT P6SM SKC=



000
FTUS43 KABR 241200 AAA
TAFATY
TAF AMD
KATY 241250Z 2413/2512 14007KT P6SM SCT090 SCT150
     FM241500 16015G25KT P6SM SCT090 BKN250
     FM250700 15011KT P6SM SKC=



000
FTUS43 KABR 241100
TAFATY
TAF
KATY 241138Z 2412/2512 14007KT P6SM VCTS SCT090CB BKN200
     FM241500 16015G25KT P6SM SCT090
     FM250700 15011KT P6SM SKC=



000
FTUS43 KABR 241100
TAFABR
TAF
KABR 241138Z 2412/2512 15010KT P6SM SCT100
     FM241400 15017G27KT P6SM SCT100 BKN250
     FM250100 14011KT P6SM SKC=



000
FTUS43 KABR 241100
TAFPIR
TAF
KPIR 241138Z 2412/2512 14019G29KT P6SM VCTS SCT120CB BKN250
     FM241400 15025G35KT P6SM SCT120
     FM250200 14010KT P6SM SKC
     FM250800 30009KT P6SM SKC=



000
FTUS43 KABR 241100
TAFMBG
TAF
KMBG 241138Z 2412/2512 14016G26KT P6SM SCT100 SCT250
     FM241300 14022G32KT P6SM VCTS SCT100CB BKN250
     FM241500 15026G36KT P6SM SCT100
     FM242300 12017KT P6SM SKC
     FM250700 36007KT P6SM SKC=



000
FTUS43 KABR 240700 AAA
TAFMBG
TAF AMD
KMBG 240700Z 2407/2506 14016G23KT P6SM SCT090
     FM241100 14018G25KT P6SM SKC=



000
FTUS43 KABR 240500
TAFABR
TAF
KABR 240535Z 2406/2506 VRB05KT P6SM SKC
     FM240900 14008KT P6SM BKN150
     FM241300 15015G25KT P6SM SKC=



000
FTUS43 KABR 240500
TAFMBG
TAF
KMBG 240535Z 2406/2506 13013KT P6SM SCT150
     FM241100 14018G25KT P6SM SKC=



000
FTUS43 KABR 240500
TAFPIR
TAF
KPIR 240535Z 2406/2506 13014KT P6SM SCT150 BKN250
     FM241100 14015G24KT P6SM SKC=



000
FTUS43 KABR 240500
TAFATY
TAF
KATY 240535Z 2406/2506 VRB05KT P6SM SKC
     FM240800 14007KT P6SM BKN150
     FM241600 16016G24KT P6SM SKC=



000
FTUS43 KABR 232300
TAFPIR
TAF
KPIR 232326Z 2400/2424 11015KT P6SM SKC
     FM240100 12010KT P6SM BKN130
     FM241100 14015G24KT P6SM SKC=



000
FTUS43 KABR 232300
TAFMBG
TAF
KMBG 232326Z 2400/2424 15015KT P6SM SKC
     FM240200 13012KT P6SM BKN130
     FM241100 14018G25KT P6SM SKC=



000
FTUS43 KABR 232300
TAFABR
TAF
KABR 232326Z 2400/2424 11008KT P6SM SKC
     FM240700 14008KT P6SM BKN080
     FM241300 15015G25KT P6SM SKC=



000
FTUS43 KABR 232300
TAFATY
TAF
KATY 232326Z 2400/2424 07007KT P6SM SKC
     FM240800 14007KT P6SM BKN080
     FM241600 16016G24KT P6SM SKC=



000
FTUS43 KABR 231700
TAFMBG
TAF
KMBG 231730Z 2318/2418 16015KT P6SM SKC
     FM240200 12012KT P6SM BKN130
     FM241100 14018G25KT P6SM SKC=



000
FTUS43 KABR 231700
TAFPIR
TAF
KPIR 231730Z 2318/2418 13018G28KT P6SM SKC
     FM240100 12010KT P6SM BKN130
     FM241100 14015G24KT P6SM SKC=



000
FTUS43 KABR 231700
TAFATY
TAF
KATY 231730Z 2318/2418 VRB06KT P6SM SKC
     FM240800 14007KT P6SM BKN080
     FM241600 16016G24KT P6SM SKC=



000
FTUS43 KABR 231700
TAFABR
TAF
KABR 231730Z 2318/2418 14012KT P6SM SKC
     FM240700 14008KT P6SM BKN080
     FM241300 15015G25KT P6SM SKC=



000
FTUS43 KABR 231100
TAFABR
TAF
KABR 231137Z 2312/2412 VRB06KT P6SM SCT120
     FM231500 12008KT P6SM SCT060=



000
FTUS43 KABR 231100
TAFMBG
TAF
KMBG 231137Z 2312/2412 10007KT P6SM FEW120
     FM231500 14014KT P6SM SKC
     FM240700 14016G26KT P6SM BKN120 OVC250=



000
FTUS43 KABR 231100
TAFPIR
TAF
KPIR 231137Z 2312/2412 11011KT P6SM SKC
     FM231700 13015G22KT P6SM SCT100=



000
FTUS43 KABR 231100
TAFATY
TAF
KATY 231137Z 2312/2412 VRB06KT P6SM SCT120
     FM231600 06006KT P6SM SKC
     FM240400 13006KT P6SM SKC=



000
FTUS43 KABR 230500
TAFPIR
TAF
KPIR 230532Z 2306/2406 15010KT P6SM FEW110 BKN150
     FM231400 12010KT P6SM BKN100
     FM231700 12015G22KT P6SM BKN100=



000
FTUS43 KABR 230500
TAFATY
TAF
KATY 230532Z 2306/2406 VRB05KT P6SM SCT200=



000
FTUS43 KABR 230500
TAFMBG
TAF
KMBG 230532Z 2306/2406 13008KT P6SM FEW200
     FM231400 14013KT P6SM BKN100
     FM231700 14015G22KT P6SM SCT100=



000
FTUS43 KABR 230500
TAFABR
TAF
KABR 230532Z 2306/2406 VRB04KT P6SM SCT200
     FM231500 12008KT P6SM SCT060=



000
FTUS43 KABR 230100 AAA
TAFATY
TAF AMD
KATY 230120Z 2301/2324 VRB05KT P6SM SCT200=



000
FTUS43 KABR 222300
TAFABR
TAF
KABR 222326Z 2300/2324 02008KT P6SM FEW045 SCT200
     FM231500 12008KT P6SM SCT060=



000
FTUS43 KABR 222300
TAFPIR
TAF
KPIR 222326Z 2300/2324 06011KT P6SM FEW060 FEW200
     FM231200 11010KT P6SM BKN060=



000
FTUS43 KABR 222300
TAFMBG
TAF
KMBG 222326Z 2300/2324 VRB05KT P6SM FEW200
     FM231600 15013KT P6SM BKN060=



000
FTUS43 KABR 222300
TAFATY
TAF
KATY 222326Z 2300/2324 02012KT P6SM SCT200
     FM230500 06005KT P6SM SKC=



    US Dept of Commerce
    National Oceanic and Atmospheric Administration
    National Weather Service
    1325 East West Highway
    Silver Spring, MD 20910
    Page Author: NWS Internet Services Team
Disclaimer
Information Quality
Credits
Glossary
Privacy Policy
Freedom of Information Act (FOIA)
About Us
Career Opportunities